^^
Datos históricos de la estación: Murcia-Puente Tocinos
Diario Informe para Julio 16, 2019 Unidades:  Ingés    Métrico   Ambas
Diario Semanal Mensual Anual
  Máxima: Mínima: Promedio:
Temperatura: 63.1 °F 45.1 °F 51.8 °F
Punto de rocio: 48.4 °F 41.7 °F 44.1 °F
Humedad: 89% 47% 76%
Velocidad viento: 5.9mph 0mph 3.2mph
Racha viento: 9.2mph - -
Viento- - SSO
Presión: 30.1 in 30 in -
Precipitación: 0 in    
 
 
Tabla de datos para Julio 16, 2019
Hora Temperatura Punto de rocio Presión Viento Velocidad viento Racha viento Humedad Intensidad lluvia(por hora) Nubes
00:04 48.7 °F 44.8 °F 30.1 in Sur 2.9 mph 5 mph 86% 0 in
00:09 48.7 °F 44.6 °F 30.1 in Sur 3 mph 5 mph 86% 0 in
00:14 48.6 °F 44.6 °F 30.1 in Sur 3.1 mph 5 mph 86% 0 in
00:19 48.2 °F 44.2 °F 30.1 in Sur 3 mph 5.9 mph 86% 0 in
00:24 47.8 °F 44.1 °F 30.1 in Sur 2.9 mph 6.2 mph 86.5% 0 in
00:29 47.7 °F 44.1 °F 30.1 in Sur 3.5 mph 6 mph 87% 0 in
00:34 47.7 °F 43.9 °F 30.1 in Sur 4 mph 6 mph 87% 0 in
00:39 47.5 °F 43.9 °F 30.1 in Sur 3.5 mph 5.2 mph 87% 0 in
00:44 47.3 °F 43.7 °F 30.1 in Sur 3.1 mph 5 mph 87.1% 0 in
00:49 47.3 °F 43.9 °F 30.1 in Sur 3.1 mph 5 mph 88% 0 in
00:54 47.1 °F 43.7 °F 30.1 in Sur 3.1 mph 5 mph 88% 0 in
00:59 47.1 °F 43.7 °F 30.1 in Sur 3.1 mph 5.8 mph 88% 0 in
01:04 47.1 °F 43.7 °F 30.1 in Sur 3.1 mph 6 mph 88% 0 in
01:09 47.1 °F 43.7 °F 30.1 in Sur 3.1 mph 5 mph 88% 0 in
01:14 47.1 °F 43.7 °F 30.1 in Sur 3.1 mph 5 mph 88% 0 in
01:19 46.9 °F 43.5 °F 30.1 in Sur 2.3 mph 4 mph 87.3% 0 in
01:24 46.9 °F 43.3 °F 30.1 in Sur 1.8 mph 4.6 mph 87% 0 in
01:29 46.8 °F 43.2 °F 30.1 in Sur 1.8 mph 5 mph 87% 0 in
01:34 46.8 °F 43.2 °F 30.1 in Sur 1.8 mph 5 mph 87% 0 in
01:39 46.6 °F 43 °F 30.1 in Sur 2.2 mph 5 mph 87% 0 in
01:44 46.2 °F 42.6 °F 30.1 in Sur 2.4 mph 4 mph 87% 0 in
01:49 46 °F 42.6 °F 30.1 in Sur 2.4 mph 4.6 mph 87.4% 0 in
01:54 46 °F 42.6 °F 30.1 in Sur 2.4 mph 5 mph 88% 0 in
01:59 45.9 °F 42.6 °F 30.1 in Sur 2.4 mph 4 mph 88% 0 in
02:04 45.9 °F 42.4 °F 30.1 in Sur 2.4 mph 5 mph 88% 0 in
02:09 45.9 °F 42.4 °F 30.1 in Sur 2.7 mph 5 mph 88% 0 in
02:14 45.7 °F 42.3 °F 30.1 in Sur 2.9 mph 5 mph 88% 0 in
02:19 45.7 °F 42.6 °F 30.1 in Sur 2.9 mph 5 mph 88.9% 0 in
02:24 45.7 °F 42.6 °F 30.1 in SSO 2.9 mph 5.2 mph 89% 0 in
02:29 45.7 °F 42.4 °F 30.1 in SSO 3 mph 6.2 mph 89% 0 in
02:34 45.7 °F 42.6 °F 30.1 in SSO 3.1 mph 6 mph 89% 0 in
02:39 45.7 °F 42.6 °F 30.1 in SSO 3.6 mph 6 mph 89% 0 in
02:44 45.7 °F 42.6 °F 30.1 in Sur 4 mph 6 mph 89% 0 in
02:49 45.5 °F 42.4 °F 30.1 in Sur 3.8 mph 6 mph 89% 0 in
02:54 45.3 °F 42.3 °F 30.1 in Sur 3.6 mph 6 mph 89% 0 in
02:59 45.1 °F 42.1 °F 30.1 in SSO 3.9 mph 6.9 mph 89% 0 in
03:04 45.1 °F 42.1 °F 30.1 in SSO 4 mph 7 mph 89% 0 in
03:09 45.3 °F 42.3 °F 30.1 in SSO 4 mph 6 mph 89% 0 in
03:14 45.5 °F 42.4 °F 30.1 in SSO 4 mph 6.2 mph 89% 0 in
03:19 45.7 °F 42.6 °F 30.1 in SSO 3.8 mph 6 mph 89% 0 in
03:24 45.9 °F 42.6 °F 30.1 in SSO 3.6 mph 6.2 mph 88.5% 0 in
03:29 45.9 °F 42.4 °F 30.1 in SSO 3.6 mph 6 mph 88% 0 in
03:34 45.9 °F 42.4 °F 30.1 in Sur 3.6 mph 6 mph 88% 0 in
03:39 46 °F 42.6 °F 30.1 in SSO 3.6 mph 6.9 mph 88% 0 in
03:44 46 °F 42.8 °F 30.1 in SSO 3.6 mph 7.4 mph 88% 0 in
03:49 46.2 °F 43 °F 30.1 in SSO 4.2 mph 7 mph 88% 0 in
03:54 46.2 °F 43 °F 30.1 in SSO 4.7 mph 7 mph 88% 0 in
03:59 46.4 °F 42.8 °F 30.1 in SSO 4.7 mph 7 mph 87.2% 0 in
04:04 46.2 °F 42.6 °F 30.1 in SSO 4.7 mph 6 mph 87% 0 in
04:09 46 °F 42.4 °F 30.1 in SSO 4 mph 6 mph 87% 0 in
04:14 45.9 °F 42.3 °F 30.1 in SSO 3.6 mph 6 mph 87% 0 in
04:19 45.9 °F 42.1 °F 30.1 in Sur 3.6 mph 6 mph 87% 0 in
04:24 45.7 °F 41.9 °F 30.1 in Sur 3.6 mph 5 mph 87% 0 in
04:29 45.5 °F 41.9 °F 30.1 in Sur 3.2 mph 5 mph 87% 0 in
04:34 45.3 °F 41.7 °F 30.1 in Sur 2.9 mph 5 mph 87% 0 in
04:39 45.3 °F 41.7 °F 30.1 in Sur 2.6 mph 5 mph 87.3% 0 in
04:44 45.3 °F 42.1 °F 30.1 in Sur 2.4 mph 5 mph 88% 0 in
04:49 45.5 °F 42.3 °F 30.1 in Sur 2.4 mph 5 mph 88% 0 in
04:54 45.7 °F 42.3 °F 30.1 in Sur 2.4 mph 3.5 mph 88% 0 in
04:59 45.9 °F 42.4 °F 30.1 in Sur 2.1 mph 4.6 mph 88% 0 in
05:04 46 °F 42.6 °F 30.1 in SO 2 mph 5 mph 88% 0 in
05:09 46 °F 42.8 °F 30.1 in SO 2.2 mph 5 mph 88% 0 in
05:14 46.2 °F 42.6 °F 30.1 in SO 2.4 mph 4 mph 87.2% 0 in
05:19 46.2 °F 42.6 °F 30.1 in SO 1.8 mph 2 mph 87% 0 in
05:24 46.2 °F 42.6 °F 30.1 in SO 1.4 mph   87% 0 in
05:29 46.2 °F 42.6 °F 30.1 in SO 0.6 mph   87% 0 in
05:34 46.4 °F 42.6 °F 30.1 in Calm     87% 0 in
05:39 46.2 °F 42.4 °F 30.1 in Calm     86.2% 0 in
05:44 46 °F 42.1 °F 30.1 in Calm   2.9 mph 86% 0 in
05:49 45.9 °F 41.9 °F 30.1 in SO 0.8 mph 3.6 mph 86% 0 in
05:54 45.7 °F 41.7 °F 30.1 in SO 1.4 mph 4 mph 86.2% 0 in
05:59 45.5 °F 41.9 °F 30.1 in SO 1.8 mph 3 mph 87% 0 in
06:04 45.5 °F 41.9 °F 30.1 in SO 2 mph 3.6 mph 87% 0 in
06:09 45.5 °F 41.9 °F 30.1 in SSE 2.2 mph 4.7 mph 87% 0 in
06:14 45.5 °F 41.9 °F 30.1 in SSE 2.4 mph 6.2 mph 87.1% 0 in
06:19 45.3 °F 42.1 °F 30.1 in SSE 3 mph 6 mph 87.9% 0 in
06:24 45.3 °F 41.9 °F 30.1 in SSE 3.6 mph 6.2 mph 88% 0 in
06:29 45.1 °F 41.7 °F 30.1 in SSE 3.8 mph 6 mph 88% 0 in
06:34 45.1 °F 41.9 °F 30.1 in SSE 4 mph 6 mph 88.6% 0 in
06:39 45.1 °F 42.1 °F 30.1 in SSE 3.8 mph 6.2 mph 89% 0 in
06:44 45.3 °F 42.3 °F 30.1 in SSE 3.6 mph 6 mph 89% 0 in
06:49 45.3 °F 42.1 °F 30.1 in SSE 4 mph 6.4 mph 88.1% 0 in
06:54 45.3 °F 42.3 °F 30.1 in Sur 4.3 mph 7 mph 88.8% 0 in
06:59 45.3 °F 42.4 °F 30.1 in Sur 4.1 mph 6.2 mph 89% 0 in
07:04 45.7 °F 42.6 °F 30.1 in Sur 4 mph 6 mph 89% 0 in
07:09 45.9 °F 42.4 °F 30.1 in SSO 4 mph 6 mph 88.1% 0 in
07:14 45.9 °F 42.4 °F 30.1 in SSO 4 mph 6 mph 88% 0 in
07:19 46 °F 42.6 °F 30.1 in SSO 3.5 mph 6 mph 88% 0 in
07:24 46.2 °F 43 °F 30.1 in Sur 3.1 mph 5.8 mph 88% 0 in
07:29 46.6 °F 43 °F 30.1 in Sur 3.1 mph 6 mph 87.6% 0 in
07:34 46.8 °F 43 °F 30.1 in Sur 3.1 mph 5.8 mph 87% 0 in
07:39 46.8 °F 43.2 °F 30.1 in SSE 3.1 mph 6 mph 86.8% 0 in
07:44 46.8 °F 42.8 °F 30.1 in SSE 3.1 mph 6.9 mph 86% 0 in
07:49 46.8 °F 43 °F 30.1 in SSE 3.6 mph 7 mph 86.4% 0 in
07:54 46.6 °F 43 °F 30.1 in SSE 4 mph 7 mph 87% 0 in
07:59 46.6 °F 43 °F 30.1 in SSE 4.2 mph 7 mph 87% 0 in
08:04 46.6 °F 43 °F 30.1 in SSE 4.3 mph 7 mph 87% 0 in
08:09 46.6 °F 43 °F 30.1 in SSE 4.3 mph 6.9 mph 87% 0 in
08:14 46.8 °F 43 °F 30.1 in SSE 4.3 mph 8.1 mph 87% 0 in
08:19 46.8 °F 43.2 °F 30.1 in SSE 4.5 mph 8 mph 87% 0 in
08:24 46.9 °F 43.3 °F 30.1 in Sur 4.7 mph 7 mph 87% 0 in
08:29 47.1 °F 43.2 °F 30.1 in Sur 4.5 mph 8.1 mph 86.3% 0 in
08:34 47.1 °F 43.2 °F 30.1 in Sur 4.3 mph 8 mph 86% 0 in
08:39 47.3 °F 43.3 °F 30.1 in SSO 4.5 mph 7.4 mph 86% 0 in
08:44 47.5 °F 43.3 °F 30.1 in SSO 4.7 mph 7 mph 85.4% 0 in
08:49 47.7 °F 43.3 °F 30.1 in SSO 4.7 mph 7 mph 85% 0 in
08:54 47.7 °F 43.3 °F 30.1 in SSO 4.7 mph 7 mph 85% 0 in
08:59 47.8 °F 43.5 °F 30.1 in SO 4.4 mph 7 mph 85% 0 in
09:04 47.8 °F 43.2 °F 30.1 in SO 4.3 mph 6.2 mph 84% 0 in
09:09 48 °F 43.3 °F 30.1 in SO 4.1 mph 8.1 mph 84% 0 in
09:14 48 °F 43.3 °F 30.1 in SO 4 mph 8.1 mph 83.5% 0 in
09:19 48.2 °F 43.3 °F 30.1 in OSO 4.2 mph 8 mph 83% 0 in
09:24 48.4 °F 43.3 °F 30.1 in SO 4.3 mph 6.2 mph 83% 0 in
09:29 48.4 °F 43.3 °F 30.1 in OSO 4.2 mph 6.9 mph 82.7% 0 in
09:34 48.4 °F 43.2 °F 30.1 in OSO 4 mph 7 mph 82% 0 in
09:39 48.6 °F 43.2 °F 30.1 in SO 4 mph 7 mph 82% 0 in
09:44 48.6 °F 43.3 °F 30.1 in OSO 4 mph 7 mph 82% 0 in
09:49 48.6 °F 43.3 °F 30.1 in SO 4 mph 6.2 mph 82% 0 in
09:54 48.6 °F 43.3 °F 30.1 in SO 4 mph 6.2 mph 81.9% 0 in
09:59 48.7 °F 43.3 °F 30.1 in SO 3.4 mph 6 mph 81.8% 0 in
10:04 48.7 °F 43.2 °F 30.1 in SSO 3.1 mph 5.8 mph 81.1% 0 in
10:09 48.7 °F 43.2 °F 30.1 in SSO 3.4 mph 6.2 mph 81% 0 in
10:14 48.6 °F 43 °F 30.1 in SSO 3.6 mph 6 mph 81% 0 in
10:19 48.6 °F 43 °F 30.1 in SSO 4 mph 6.9 mph 81% 0 in
10:24 48.6 °F 43 °F 30.1 in Sur 4.3 mph 7 mph 81% 0 in
10:29 48.6 °F 43 °F 30.1 in Sur 4.3 mph 8.1 mph 81% 0 in
10:34 48.7 °F 43.2 °F 30.1 in Sur 4.3 mph 8 mph 81% 0 in
10:39 48.7 °F 43.2 °F 30.1 in Sur 4.5 mph 7.6 mph 81% 0 in
10:44 48.7 °F 43.2 °F 30.1 in SSO 4.7 mph 8 mph 80.5% 0 in
10:49 48.9 °F 43.2 °F 30.1 in Sur 4.7 mph 7 mph 80.4% 0 in
10:54 49.3 °F 43.5 °F 30.1 in SSO 4.7 mph 7 mph 80.3% 0 in
10:59 49.8 °F 43.5 °F 30.1 in SO 4.2 mph 8.5 mph 78.6% 0 in
11:04 50.2 °F 43.5 °F 30.1 in OSO 4 mph 9 mph 78% 0 in
11:09 50.2 °F 43.3 °F 30.1 in OSO 4.7 mph 9.2 mph 77.3% 0 in
11:14 50.2 °F 43.5 °F 30.1 in OSO 5.2 mph 9.2 mph 78% 0 in
11:19 50.4 °F 43.7 °F 30.1 in OSO 5.6 mph 9 mph 78% 0 in
11:24 50.5 °F 43.9 °F 30.1 in OSO 5.9 mph 8 mph 78% 0 in
11:29 51.1 °F 44.1 °F 30.1 in SO 4.5 mph 7 mph 76.7% 0 in
11:34 51.4 °F 44.1 °F 30.1 in SSO 3.6 mph 8.1 mph 76% 0 in
11:39 51.6 °F 44.2 °F 30.1 in SO 3.6 mph 8.1 mph 75.9% 0 in
11:44 52 °F 44.1 °F 30.1 in SSO 3.6 mph 8.1 mph 74.6% 0 in
11:49 52.2 °F 44.1 °F 30.1 in SO 3.3 mph 8.1 mph 74% 0 in
11:54 52.2 °F 44.1 °F 30.1 in Oeste 3.1 mph 8 mph 74% 0 in
11:59 52.2 °F 44.2 °F 30.1 in Oeste 3.5 mph 6 mph 74.3% 0 in
12:04 52.3 °F 44.2 °F 30.1 in Oeste 3.6 mph 6.9 mph 74% 0 in
12:09 52.7 °F 44.6 °F 30.1 in SO 3.2 mph 7 mph 74% 0 in
12:14 53.2 °F 44.8 °F 30.1 in SO 2.9 mph 6 mph 73% 0 in
12:19 53.6 °F 45.1 °F 30.1 in SO 2.4 mph 7.4 mph 72.7% 0 in
12:24 54 °F 44.8 °F 30.1 in ONO 2 mph 7 mph 71.2% 0 in
12:29 54.1 °F 44.8 °F 30.1 in Oeste 2.7 mph 6.9 mph 71% 0 in
12:34 54.1 °F 45 °F 30.1 in SO 3.1 mph 7.4 mph 71% 0 in
12:39 54.1 °F 45 °F 30.1 in SO 3.6 mph 7 mph 71% 0 in
12:44 54.5 °F 45.3 °F 30.1 in OSO 4 mph 7 mph 71% 0 in
12:49 54.9 °F 45.3 °F 30.1 in Oeste 3.5 mph 6 mph 70% 0 in
12:54 55 °F 45.3 °F 30.1 in Oeste 3.1 mph 6 mph 69.8% 0 in
12:59 55.2 °F 45.5 °F 30.1 in Oeste 2.7 mph 6.9 mph 69.4% 0 in
13:04 55.8 °F 45.5 °F 30.1 in SSO 2.4 mph 7.4 mph 68.5% 0 in
13:09 55.9 °F 45.5 °F 30.1 in SO 3.3 mph 7.4 mph 68% 0 in
13:14 55.9 °F 45.5 °F 30.1 in SSO 4 mph 7 mph 67.8% 0 in
13:19 56.1 °F 45.3 °F 30.1 in SO 3.8 mph 6.2 mph 67.2% 0 in
13:24 56.3 °F 45.5 °F 30.1 in SSO 3.6 mph 6 mph 67% 0 in
13:29 56.7 °F 45.7 °F 30.1 in Sur 3.3 mph 6.9 mph 66.3% 0 in
13:34 56.8 °F 45.7 °F 30.1 in SSO 3.1 mph 7.4 mph 66% 0 in
13:39 57 °F 45.7 °F 30 in OSO 3.9 mph 7 mph 65.4% 0 in
13:44 57.4 °F 45.3 °F 30 in OSO 4.3 mph 8.1 mph 64.4% 0 in
13:49 57.4 °F 45.5 °F 30 in OSO 4.3 mph 8.1 mph 64.3% 0 in
13:54 57.7 °F 45.5 °F 30 in Oeste 4.3 mph 8 mph 63.6% 0 in
13:59 57.9 °F 45.3 °F 30 in SO 3.5 mph 6.2 mph 63% 0 in
14:04 58.3 °F 45.5 °F 30 in SSO 3.1 mph 8.1 mph 62.4% 0 in
14:09 58.3 °F 45.3 °F 30 in SSO 3.8 mph 8 mph 62% 0 in
14:14 58.5 °F 45.3 °F 30 in Oeste 4.3 mph 8.5 mph 61.4% 0 in
14:19 58.6 °F 45.3 °F 30 in OSO 4.3 mph 9 mph 61.2% 0 in
14:24 58.6 °F 45.1 °F 30 in Oeste 4.3 mph 9 mph 61% 0 in
14:29 58.6 °F 45 °F 30 in Oeste 3.9 mph 9.2 mph 60.1% 0 in
14:34 59.2 °F 44.6 °F 30 in Oeste 3.6 mph 9 mph 58.4% 0 in
14:39 59.4 °F 45 °F 30 in OSO 4 mph 8.1 mph 59% 0 in
14:44 59.5 °F 45.1 °F 30 in OSO 4.3 mph 8 mph 58.9% 0 in
14:49 59.9 °F 45 °F 30 in SO 3 mph 6.2 mph 57.8% 0 in
14:54 60.3 °F 44.4 °F 30 in OSO 2 mph 6.9 mph 55.8% 0 in
14:59 60.4 °F 44.1 °F 30 in SO 2.7 mph 8.1 mph 54.7% 0 in
15:04 60.6 °F 43.7 °F 30 in OSO 3.1 mph 8 mph 53.6% 0 in
15:09 60.6 °F 43 °F 30 in SSO 3.1 mph 6 mph 52.3% 0 in
15:14 60.6 °F 42.4 °F 30 in SSE 3.1 mph 6 mph 51.1% 0 in
15:19 60.8 °F 42.6 °F 30 in SO 3.4 mph 6.2 mph 51% 0 in
15:24 61.2 °F 42.8 °F 30 in SSE 3.6 mph 7.4 mph 50.9% 0 in
15:29 61.2 °F 42.8 °F 30 in Sur 3.6 mph 7 mph 50.9% 0 in
15:34 61.2 °F 42.6 °F 30 in Sur 3.6 mph 6 mph 50.6% 0 in
15:39 61.3 °F 43 °F 30 in SSO 3.3 mph 7.4 mph 51% 0 in
15:44 61.3 °F 43 °F 30 in SO 3.1 mph 8.5 mph 51% 0 in
15:49 61.3 °F 43.2 °F 30 in SO 3.8 mph 9 mph 51% 0 in
15:54 61.5 °F 43 °F 30 in SO 4.3 mph 8.1 mph 50.7% 0 in
15:59 61.7 °F 43.2 °F 30 in Oeste 3.5 mph 7 mph 50.5% 0 in
16:04 61.9 °F 43.3 °F 30 in OSO 3.1 mph 7.4 mph 50.6% 0 in
16:09 61.9 °F 43 °F 30 in SSO 3.1 mph 7 mph 50% 0 in
16:14 61.7 °F 42.8 °F 30 in ESE 3.1 mph 6 mph 50% 0 in
16:19 61.5 °F 42.8 °F 30 in ESE 2.7 mph 6 mph 50.1% 0 in
16:24 61.5 °F 42.6 °F 30 in SE 2.4 mph 5 mph 50% 0 in
16:29 61.7 °F 42.8 °F 30 in SE 2.2 mph 4.3 mph 50% 0 in
16:34 62.1 °F 43 °F 30 in SO 2 mph 5.9 mph 49.4% 0 in
16:39 62.2 °F 42.8 °F 30 in SSO 2.5 mph 6 mph 49% 0 in
16:44 62.2 °F 42.4 °F 30 in SSO 2.9 mph 5 mph 48.3% 0 in
16:49 62.2 °F 42.6 °F 30 in SSE 2.9 mph 5.8 mph 48.5% 0 in
16:54 62.4 °F 43 °F 30 in SSE 2.9 mph 6 mph 49% 0 in
16:59 62.6 °F 42.6 °F 30 in Sur 2.2 mph 4.7 mph 48% 0 in
17:04 62.6 °F 42.6 °F 30 in SSO 1.8 mph 5 mph 48% 0 in
17:09 62.4 °F 42.4 °F 30 in OSO 2.4 mph 5 mph 48% 0 in
17:14 62.4 °F 42.4 °F 30 in OSO 2.9 mph 5 mph 48% 0 in
17:19 62.6 °F 42.4 °F 30 in OSO 1.2 mph 2 mph 47.6% 0 in
17:24 63 °F 42.6 °F 30 in Calm     47.3% 0 in
17:29 63.1 °F 42.6 °F 30 in Calm     47% 0 in
17:34 63.1 °F 42.4 °F 30 in Calm   2.9 mph 47% 0 in
17:39 63 °F 42.3 °F 30 in OSO 0.8 mph 3 mph 47% 0 in
17:44 62.8 °F 42.3 °F 30 in OSO 1.4 mph 2 mph 47% 0 in
17:49 62.8 °F 42.3 °F 30 in OSO 0.8 mph 3.1 mph 47% 0 in
17:54 62.6 °F 42.3 °F 30 in Calm   3.6 mph 47.2% 0 in
17:59 62.1 °F 42.3 °F 30 in Este 1.2 mph 4.6 mph 48.3% 0 in
18:04 61.3 °F 42.3 °F 30 in Este 1.8 mph 6.2 mph 49.5% 0 in
18:09 60.6 °F 42.6 °F 30 in ESE 2.4 mph 6.9 mph 51.5% 0 in
18:14 59.7 °F 43.7 °F 30 in ESE 2.9 mph 7.6 mph 55.6% 0 in
18:19 58.8 °F 44.6 °F 30 in ESE 3.9 mph 8.1 mph 59.1% 0 in
18:24 58.3 °F 45.1 °F 30 in ESE 4.7 mph 7 mph 61.7% 0 in
18:29 57.7 °F 45.3 °F 30 in SE 4.5 mph 7 mph 63.4% 0 in
18:34 57.4 °F 45.3 °F 30 in SE 4.3 mph 6 mph 64.1% 0 in
18:39 57.2 °F 45.5 °F 30 in SE 3.9 mph 5 mph 65% 0 in
18:44 57 °F 45.3 °F 30 in SE 3.6 mph 5 mph 65% 0 in
18:49 56.8 °F 45.3 °F 30 in SE 2.9 mph 5 mph 65% 0 in
18:54 56.8 °F 45.3 °F 30 in SE 2.4 mph 4.6 mph 65.4% 0 in
18:59 56.7 °F 45.5 °F 30 in SE 2.1 mph 5 mph 66% 0 in
19:04 56.7 °F 45.9 °F 30 in SE 2 mph 4.6 mph 67% 0 in
19:09 56.7 °F 45.9 °F 30 in SE 2.2 mph 5 mph 67.3% 0 in
19:14 56.7 °F 46.2 °F 30 in SSE 2.4 mph 5 mph 68% 0 in
19:19 56.7 °F 46.6 °F 30 in SO 2.4 mph 5.2 mph 68.9% 0 in
19:24 56.7 °F 46.9 °F 30 in Oeste 2.4 mph 5.4 mph 70.2% 0 in
19:29 56.3 °F 47.1 °F 30 in Oeste 2.8 mph 6 mph 71% 0 in
19:34 55.9 °F 46.8 °F 30 in Oeste 3.1 mph 5 mph 71.1% 0 in
19:39 55.8 °F 46.9 °F 30 in Oeste 2.4 mph 4.3 mph 72.2% 0 in
19:44 55.8 °F 47.1 °F 30 in SO 1.8 mph 5.2 mph 73% 0 in
19:49 55.6 °F 47.1 °F 30 in SSO 2.2 mph 5.2 mph 73.3% 0 in
19:54 55.6 °F 47.3 °F 30 in SO 2.4 mph 5 mph 74% 0 in
19:59 55.4 °F 47.7 °F 30 in SO 2.7 mph 5 mph 74.8% 0 in
20:04 55.4 °F 47.8 °F 30 in SO 2.9 mph 8.1 mph 75.8% 0 in
20:09 55.2 °F 47.8 °F 30 in SO 3.3 mph 8 mph 76.4% 0 in
20:14 55 °F 48 °F 30 in OSO 3.6 mph 7 mph 77% 0 in
20:19 54.9 °F 48.2 °F 30 in OSO 3.6 mph 7 mph 77.9% 0 in
20:24 54.9 °F 48 °F 30 in OSO 3.6 mph 7.4 mph 78% 0 in
20:29 54.7 °F 48.2 °F 30 in OSO 3.3 mph 7 mph 78.9% 0 in
20:34 54.3 °F 48 °F 30 in OSO 3.1 mph 5.2 mph 79% 0 in
20:39 54.3 °F 48.2 °F 30 in SO 3 mph 6.2 mph 79.8% 0 in
20:44 54.1 °F 48.2 °F 30 in SO 2.9 mph 6 mph 80% 0 in
20:49 54.1 °F 48 °F 30 in SO 2.6 mph 5 mph 80% 0 in
20:54 54.1 °F 48 °F 30 in SO 2.4 mph 4 mph 80% 0 in
20:59 54 °F 48 °F 30 in SO 1.7 mph 3.6 mph 80.3% 0 in
21:04 54 °F 48.4 °F 30 in SO 1.4 mph 7.4 mph 81% 0 in
21:09 53.8 °F 48.2 °F 30 in SO 2.3 mph 7 mph 81.1% 0 in
21:14 53.8 °F 48.4 °F 30 in SO 2.9 mph 5 mph 81.8% 0 in
21:19 53.8 °F 48.4 °F 30 in SO 2.6 mph 5 mph 82% 0 in
21:24 53.6 °F 48.2 °F 30 in SO 2.4 mph 2.3 mph 82% 0 in
21:29 53.4 °F 47.8 °F 30 in SO 1.1 mph 2 mph 81.2% 0 in
21:34 53.2 °F 47.7 °F 30 in Calm   2.4 mph 81% 0 in
21:39 53.1 °F 47.5 °F 30 in Calm   2.4 mph 81% 0 in
21:44 52.7 °F 47.1 °F 30 in Calm   3.5 mph 81.5% 0 in
21:49 52.3 °F 46.9 °F 30 in SO 1.1 mph 3 mph 82% 0 in
21:54 52.2 °F 47.1 °F 30 in SO 1.8 mph 3 mph 83% 0 in
21:59 52 °F 46.9 °F 30 in SO 0.6 mph 2.9 mph 83% 0 in
22:04 51.6 °F 46.6 °F 30 in Calm   3 mph 83.2% 0 in
22:09 51.6 °F 46.9 °F 30 in SO 1.1 mph 4.3 mph 84% 0 in
22:14 51.4 °F 46.8 °F 30 in SO 1.8 mph 5 mph 84% 0 in
22:19 51.3 °F 46.8 °F 30 in Sur 2.5 mph 6.2 mph 84.7% 0 in
22:24 51.3 °F 46.9 °F 30 in Sur 3.1 mph 6.9 mph 85% 0 in
22:29 51.3 °F 46.9 °F 30 in SSO 3.8 mph 7 mph 85.5% 0 in
22:34 51.3 °F 47.1 °F 30 in SO 4.3 mph 6 mph 86% 0 in
22:39 51.3 °F 47.1 °F 30 in SSO 4.2 mph 6.9 mph 85.4% 0 in
22:44 51.3 °F 46.9 °F 30 in SSO 4 mph 7 mph 85% 0 in
22:49 51.3 °F 46.8 °F 30 in Sur 4.2 mph 7.4 mph 85% 0 in
22:54 51.1 °F 46.6 °F 30 in SSO 4.3 mph 7 mph 84.7% 0 in
22:59 51.1 °F 46.6 °F 30 in SO 4.1 mph 7 mph 84.5% 0 in
23:04 51.1 °F 46.8 °F 30 in SSO 4 mph 5.9 mph 85% 0 in
23:09 51.1 °F 46.4 °F 30 in SSO 3.8 mph 6.2 mph 84.1% 0 in
23:14 51.1 °F 46.4 °F 30 in SO 3.6 mph 6 mph 84% 0 in
23:19 51.1 °F 46.4 °F 30 in SO 3.9 mph 7.4 mph 84% 0 in
23:24 50.9 °F 46.2 °F 30 in SO 4 mph 7.4 mph 84% 0 in
23:29 50.7 °F 46.2 °F 30 in SO 4 mph 7 mph 84.1% 0 in
23:34 50.7 °F 46.4 °F 30 in SO 4 mph 6.9 mph 85% 0 in
23:39 50.5 °F 46.2 °F 30 in OSO 4.2 mph 7 mph 85% 0 in
23:44 50.5 °F 46.2 °F 30 in OSO 4.3 mph 5.2 mph 85% 0 in
23:49 50.4 °F 46 °F 30 in OSO 3.9 mph 7.6 mph 85% 0 in
23:54 50.4 °F 46 °F 30 in OSO 3.6 mph 8.1 mph 85% 0 in
23:59 50.4 °F 46.2 °F 30 in OSO 4.6 mph 8.1 mph 85.6% 0 in
Murcia-Puente Tocinos, España
Compliments of Weather Underground - 2.75 mb

La estación de MeteoMurcia.com, publica sus datos en los siguientes proyectos:

Weather Underground PWS IMURCIAP2 Meteoclimatic www.awekas.at

W3Counter
Web Analytics